createdAt,value
2019-02-24T00:02:09.357Z,57.20
2019-02-24T00:04:35.372Z,57.40
2019-02-24T00:07:02.141Z,59.60
2019-02-24T00:09:28.147Z,59.40
2019-02-24T00:11:54.220Z,57.90
2019-02-24T00:14:20.349Z,56.70
2019-02-24T00:16:46.685Z,56.40
2019-02-24T00:19:12.695Z,55.90
2019-02-24T00:21:38.732Z,55.90
2019-02-24T00:24:04.768Z,55.80
2019-02-24T00:26:30.796Z,55.90
2019-02-24T00:28:56.855Z,55.50
2019-02-24T00:31:22.889Z,57.10
2019-02-24T00:33:48.899Z,56.00
2019-02-24T00:36:14.915Z,57.20
2019-02-24T00:38:40.951Z,54.00
2019-02-24T00:41:06.967Z,54.40
2019-02-24T00:43:32.995Z,55.40
2019-02-24T00:46:18.892Z,55.60
2019-02-24T00:48:44.924Z,54.40
2019-02-24T00:51:11.029Z,54.40
2019-02-24T00:53:37.095Z,52.00
2019-02-24T00:56:03.147Z,50.70
2019-02-24T00:58:29.179Z,52.30
2019-02-24T01:00:55.595Z,50.80
2019-02-24T01:03:21.627Z,51.00
2019-02-24T01:05:47.658Z,50.00
2019-02-24T01:08:13.698Z,49.40
2019-02-24T01:10:39.879Z,49.80
2019-02-24T01:13:06.007Z,48.80
2019-02-24T01:15:32.039Z,48.90
2019-02-24T01:17:58.176Z,48.90
2019-02-24T01:20:24.183Z,48.60
2019-02-24T01:22:50.216Z,48.10
2019-02-24T01:25:16.230Z,49.70
2019-02-24T01:27:42.261Z,48.00
2019-02-24T01:30:09.387Z,49.60
2019-02-24T01:32:35.428Z,48.70
2019-02-24T01:35:01.433Z,46.80
2019-02-24T01:37:27.468Z,46.80
2019-02-24T01:39:53.480Z,48.30
2019-02-24T01:42:19.519Z,47.50
2019-02-24T01:44:45.544Z,48.20
2019-02-24T01:47:11.579Z,45.80
2019-02-24T01:49:37.691Z,47.50
2019-02-24T01:52:03.771Z,47.50
2019-02-24T01:54:29.787Z,48.70
2019-02-24T01:56:55.803Z,45.80
2019-02-24T01:59:21.835Z,45.30
2019-02-24T02:01:47.866Z,45.20
2019-02-24T02:04:13.902Z,46.40
2019-02-24T02:06:39.915Z,45.30
2019-02-24T02:09:05.959Z,47.00
2019-02-24T02:11:31.981Z,45.20
2019-02-24T02:14:02.064Z,45.90
2019-02-24T02:16:28.078Z,46.60
2019-02-24T02:18:54.106Z,46.00
2019-02-24T02:21:20.122Z,46.00
2019-02-24T02:23:46.165Z,46.40
2019-02-24T02:26:12.200Z,46.50
2019-02-24T02:28:44.034Z,45.30
2019-02-24T02:31:06.148Z,45.40
2019-02-24T02:33:32.187Z,45.90
2019-02-24T02:35:58.199Z,46.00
2019-02-24T02:38:24.231Z,46.00
2019-02-24T02:40:50.339Z,45.70
2019-02-24T02:43:16.394Z,45.10
2019-02-24T02:45:42.426Z,45.00
2019-02-24T02:48:08.610Z,44.70
2019-02-24T02:50:34.687Z,43.70
2019-02-24T02:53:01.377Z,43.70
2019-02-24T02:55:27.373Z,44.80
2019-02-24T02:57:53.434Z,45.90
2019-02-24T03:00:26.195Z,45.50
2019-02-24T03:02:52.223Z,44.10
2019-02-24T03:05:18.231Z,44.50
2019-02-24T03:07:46.199Z,43.80
2019-02-24T03:10:12.244Z,43.50
2019-02-24T03:12:38.250Z,42.90
2019-02-24T03:15:04.409Z,43.20
2019-02-24T03:17:30.426Z,43.60
2019-02-24T03:19:56.457Z,44.80
2019-02-24T03:22:22.570Z,43.30
2019-02-24T03:24:48.596Z,43.90
2019-02-24T03:27:14.614Z,44.30
2019-02-24T03:29:40.664Z,43.50
2019-02-24T03:32:06.671Z,41.90
2019-02-24T03:34:32.800Z,42.70
2019-02-24T03:36:58.815Z,41.90
2019-02-24T03:39:24.851Z,40.80
2019-02-24T03:41:50.863Z,40.80
2019-02-24T03:44:16.888Z,42.00
2019-02-24T03:46:42.900Z,42.20
2019-02-24T03:49:08.931Z,42.50
2019-02-24T03:51:34.939Z,43.10
2019-02-24T03:54:01.856Z,43.10
2019-02-24T03:56:27.869Z,42.40
2019-02-24T03:58:53.896Z,44.90
2019-02-24T04:01:19.916Z,41.30
2019-02-24T04:03:46.166Z,42.40
2019-02-24T04:06:12.208Z,42.70
2019-02-24T04:08:38.223Z,41.50
2019-02-24T04:11:04.260Z,41.00
2019-02-24T04:13:30.276Z,41.00
2019-02-24T04:15:56.392Z,41.30
2019-02-24T04:18:22.404Z,42.20
2019-02-24T04:20:48.436Z,41.20
2019-02-24T04:23:14.471Z,40.70
2019-02-24T04:25:40.505Z,40.90
2019-02-24T04:28:06.521Z,41.90
2019-02-24T04:30:32.561Z,41.80
2019-02-24T04:32:58.628Z,40.80
2019-02-24T04:35:24.663Z,40.50
2019-02-24T04:37:50.678Z,40.10
2019-02-24T04:40:16.710Z,40.70
2019-02-24T04:42:42.711Z,40.00
2019-02-24T04:45:08.839Z,41.30
2019-02-24T04:47:34.947Z,41.60
2019-02-24T04:50:01.428Z,40.00
2019-02-24T04:52:27.439Z,40.20
2019-02-24T04:54:53.467Z,41.40
2019-02-24T04:57:19.492Z,40.00
2019-02-24T04:59:45.523Z,39.70
2019-02-24T05:02:11.606Z,38.80
2019-02-24T05:04:37.640Z,40.20
2019-02-24T05:07:03.647Z,39.90
2019-02-24T05:09:29.679Z,39.50
2019-02-24T05:11:55.699Z,39.80
2019-02-24T05:14:21.743Z,39.60
2019-02-24T05:16:47.768Z,40.70
2019-02-24T05:19:13.772Z,41.00
2019-02-24T05:21:39.800Z,42.60
2019-02-24T05:24:05.872Z,41.00
2019-02-24T05:26:31.891Z,42.70
2019-02-24T05:28:57.904Z,40.90
2019-02-24T05:31:23.927Z,41.40
2019-02-24T05:33:49.935Z,41.40
2019-02-24T05:36:15.963Z,41.50
2019-02-24T05:38:42.013Z,41.90
2019-02-24T05:41:08.052Z,41.80
2019-02-24T05:43:34.077Z,41.80
2019-02-24T05:46:00.083Z,42.50
2019-02-24T05:48:26.106Z,43.20
2019-02-24T05:50:52.119Z,43.30
2019-02-24T05:53:18.159Z,43.30
2019-02-24T05:55:44.172Z,43.60
2019-02-24T05:58:10.226Z,43.90
2019-02-24T06:00:36.536Z,44.60
2019-02-24T06:03:02.574Z,44.60
2019-02-24T06:05:28.583Z,45.10
2019-02-24T06:07:54.625Z,45.60
2019-02-24T06:10:20.639Z,45.50
2019-02-24T06:12:46.669Z,45.90
2019-02-24T06:15:12.775Z,46.10
2019-02-24T06:17:38.888Z,46.60
2019-02-24T06:20:05.117Z,45.90
2019-02-24T06:22:31.123Z,46.90
2019-02-24T06:24:57.146Z,47.50
2019-02-24T06:27:23.164Z,47.90
2019-02-24T06:29:49.188Z,47.40
2019-02-24T06:32:15.212Z,46.40
2019-02-24T06:34:41.235Z,47.30
2019-02-24T06:37:07.265Z,47.30
2019-02-24T06:39:33.320Z,47.90
2019-02-24T06:41:59.326Z,48.30
2019-02-24T06:44:25.356Z,49.10
2019-02-24T06:46:51.385Z,48.60
2019-02-24T06:49:17.909Z,49.00
2019-02-24T06:51:43.922Z,49.00
2019-02-24T06:54:09.951Z,49.90
2019-02-24T06:56:36.208Z,49.50
2019-02-24T06:59:02.214Z,49.30
2019-02-24T07:01:28.247Z,48.20
2019-02-24T07:03:54.672Z,48.60
2019-02-24T07:06:20.767Z,47.60
2019-02-24T07:08:46.807Z,48.50
2019-02-24T07:11:12.906Z,47.50
2019-02-24T07:13:39.052Z,47.80
2019-02-24T07:16:05.083Z,47.60
2019-02-24T07:18:31.180Z,47.40
2019-02-24T07:20:57.211Z,47.50
2019-02-24T07:23:23.373Z,48.60
2019-02-24T07:25:49.460Z,48.20
2019-02-24T07:28:15.492Z,48.60
2019-02-24T07:30:41.502Z,48.10
2019-02-24T07:33:07.528Z,48.60
2019-02-24T07:35:33.534Z,47.60
2019-02-24T07:37:59.671Z,47.60
2019-02-24T07:40:25.691Z,47.40
2019-02-24T07:42:51.719Z,47.40
2019-02-24T07:45:17.733Z,47.50
2019-02-24T07:47:43.767Z,47.30
2019-02-24T07:50:09.787Z,47.50
2019-02-24T07:52:35.823Z,47.70
2019-02-24T07:55:02.772Z,48.50
2019-02-24T07:57:28.898Z,47.60
2019-02-24T07:59:54.972Z,47.50
2019-02-24T08:02:21.003Z,47.40
2019-02-24T08:04:47.015Z,47.10
2019-02-24T08:07:13.059Z,47.30
2019-02-24T08:09:39.075Z,47.00
2019-02-24T08:12:05.092Z,47.20
2019-02-24T08:14:31.151Z,46.80
2019-02-24T08:16:57.159Z,46.90
2019-02-24T08:19:23.252Z,46.30
2019-02-24T08:21:49.268Z,46.20
2019-02-24T08:24:15.302Z,45.80
2019-02-24T08:26:41.338Z,45.40
2019-02-24T08:29:07.439Z,45.40
2019-02-24T08:31:33.452Z,44.70
2019-02-24T08:33:59.481Z,44.70
2019-02-24T08:36:25.636Z,44.30
2019-02-24T08:38:51.897Z,43.80
2019-02-24T08:41:17.899Z,43.60
2019-02-24T08:43:43.936Z,43.80
2019-02-24T08:46:09.971Z,43.20
2019-02-24T08:48:36.391Z,43.50
2019-02-24T08:51:02.459Z,43.40
2019-02-24T08:53:28.492Z,43.20
2019-02-24T08:55:54.507Z,41.90
2019-02-24T08:58:20.550Z,42.50
2019-02-24T09:00:51.118Z,42.10
2019-02-24T09:03:14.491Z,41.80
2019-02-24T09:05:40.508Z,40.30
2019-02-24T09:08:06.543Z,40.60
2019-02-24T09:10:32.555Z,40.40
2019-02-24T09:12:58.607Z,39.70
2019-02-24T09:15:24.616Z,40.10
2019-02-24T09:17:50.660Z,39.40
2019-02-24T09:20:16.676Z,39.00
2019-02-24T09:22:43.079Z,39.00
2019-02-24T09:25:09.219Z,39.30
2019-02-24T09:27:35.231Z,37.30
2019-02-24T09:30:03.087Z,37.60
2019-02-24T09:32:29.100Z,38.20
2019-02-24T09:37:21.533Z,36.60
2019-02-24T09:39:47.551Z,36.30
2019-02-24T09:42:13.564Z,36.20
2019-02-24T09:44:39.592Z,36.40
2019-02-24T09:47:05.618Z,35.90
2019-02-24T09:49:31.646Z,34.40
2019-02-24T09:51:57.660Z,34.10
2019-02-24T09:54:23.711Z,35.10
2019-02-24T09:56:49.829Z,35.40
2019-02-24T09:59:15.855Z,33.80
2019-02-24T10:01:41.880Z,33.40
2019-02-24T10:04:07.908Z,33.20
2019-02-24T10:06:33.928Z,32.60
2019-02-24T10:08:59.959Z,34.80
2019-02-24T10:11:25.972Z,32.00
2019-02-24T10:13:52.004Z,31.00
2019-02-24T10:16:18.019Z,31.70
2019-02-24T10:19:03.947Z,30.50
2019-02-24T10:21:29.959Z,30.80
2019-02-24T10:23:55.987Z,30.40
2019-02-24T10:26:22.008Z,30.10
2019-02-24T10:28:48.083Z,29.90
2019-02-24T10:31:19.898Z,29.60
2019-02-24T10:33:42.028Z,29.10
2019-02-24T10:36:08.039Z,29.60
2019-02-24T10:38:34.071Z,29.80
2019-02-24T10:41:00.128Z,29.70
2019-02-24T10:43:26.163Z,28.50
2019-02-24T10:45:52.172Z,29.40
2019-02-24T10:48:18.204Z,28.10
2019-02-24T10:50:44.219Z,29.70
2019-02-24T10:53:10.360Z,29.10
2019-02-24T10:55:36.371Z,28.50
2019-02-24T10:58:02.408Z,28.50
2019-02-24T11:00:28.426Z,27.70
2019-02-24T11:02:54.547Z,27.20
2019-02-24T11:05:20.592Z,27.80
2019-02-24T11:07:46.646Z,28.20
2019-02-24T11:10:12.810Z,27.10
2019-02-24T11:12:38.907Z,26.90
2019-02-24T11:15:06.959Z,27.00
2019-02-24T11:17:33.070Z,26.40
2019-02-24T11:19:59.128Z,27.20
2019-02-24T11:22:25.133Z,26.10
2019-02-24T11:24:52.219Z,26.50
2019-02-24T11:27:18.235Z,25.00
2019-02-24T11:29:44.285Z,26.40
2019-02-24T11:32:10.295Z,24.50
2019-02-24T11:34:36.331Z,26.50
2019-02-24T11:37:02.411Z,28.10
2019-02-24T11:39:28.443Z,26.00
2019-02-24T11:41:54.555Z,26.10
2019-02-24T11:44:20.587Z,26.30
2019-02-24T11:46:46.603Z,27.00
2019-02-24T11:49:12.636Z,24.40
2019-02-24T11:51:38.649Z,23.80
2019-02-24T11:54:04.679Z,24.30
2019-02-24T11:56:30.783Z,25.10
2019-02-24T11:58:56.815Z,24.00
2019-02-24T12:01:22.828Z,23.70
2019-02-24T12:03:48.859Z,23.30
2019-02-24T12:06:14.875Z,24.60
2019-02-24T12:08:40.916Z,23.40
2019-02-24T12:11:26.809Z,23.80
2019-02-24T12:13:52.839Z,23.20
2019-02-24T12:16:18.847Z,24.30
2019-02-24T12:18:44.887Z,24.30
2019-02-24T12:21:10.905Z,24.40
2019-02-24T12:23:37.179Z,23.20
2019-02-24T12:39:14.394Z,22.40
2019-02-24T12:41:57.756Z,22.60
2019-02-24T12:44:23.839Z,22.60
2019-02-24T12:53:42.958Z,22.40
2019-02-24T12:59:39.182Z,21.70
2019-02-24T13:02:05.898Z,22.40
2019-02-24T13:04:32.355Z,22.30
2019-02-24T13:06:58.379Z,22.50
2019-02-24T13:09:24.411Z,22.00
2019-02-24T13:11:50.425Z,22.30
2019-02-24T13:14:16.592Z,22.70
2019-02-24T13:16:42.607Z,22.30
2019-02-24T13:19:08.643Z,21.80
2019-02-24T13:21:34.775Z,22.30
2019-02-24T13:24:00.875Z,21.60
2019-02-24T13:26:26.904Z,21.70
2019-02-24T13:28:52.921Z,22.10
2019-02-24T13:31:18.988Z,22.00
2019-02-24T13:33:44.999Z,22.40
2019-02-24T13:36:11.032Z,22.10
2019-02-24T13:38:37.046Z,21.10
2019-02-24T13:41:03.344Z,21.40
2019-02-24T13:43:29.371Z,21.40
2019-02-24T13:45:55.410Z,20.20
2019-02-24T13:48:21.420Z,20.10
2019-02-24T13:50:47.460Z,20.10
2019-02-24T13:53:13.485Z,21.00
2019-02-24T13:55:39.511Z,21.40
2019-02-24T13:58:05.533Z,21.20
2019-02-24T14:00:31.669Z,21.80
2019-02-24T14:02:57.700Z,22.10
2019-02-24T14:05:23.798Z,22.80
2019-02-24T14:07:49.803Z,21.80
2019-02-24T14:10:15.839Z,22.30
2019-02-24T14:12:41.852Z,21.70
2019-02-24T14:15:12.536Z,20.30
2019-02-24T14:17:38.544Z,21.70
2019-02-24T14:20:07.895Z,22.00
2019-02-24T14:22:34.007Z,22.90
2019-02-24T14:25:00.045Z,22.00
2019-02-24T14:27:26.056Z,21.60
2019-02-24T14:29:52.090Z,22.00
2019-02-24T14:32:18.120Z,23.30
2019-02-24T14:34:44.143Z,22.50
2019-02-24T14:37:10.168Z,23.50
2019-02-24T14:39:36.179Z,24.20
2019-02-24T14:42:04.059Z,24.50
2019-02-24T14:44:30.155Z,23.80
2019-02-24T14:46:57.238Z,23.20
2019-02-24T14:49:23.303Z,23.70
2019-02-24T14:51:49.327Z,24.30
2019-02-24T14:54:15.335Z,23.80
2019-02-24T14:56:41.401Z,24.00
2019-02-24T14:59:07.416Z,24.60
2019-02-24T15:01:33.647Z,24.10
2019-02-24T15:03:59.695Z,25.00
2019-02-24T15:06:25.723Z,25.60
2019-02-24T15:08:51.747Z,25.80
2019-02-24T15:11:17.772Z,24.70
2019-02-24T15:13:43.779Z,24.60
2019-02-24T15:16:11.727Z,24.40
2019-02-24T15:18:37.739Z,25.10
2019-02-24T15:21:03.852Z,25.10
2019-02-24T15:23:29.900Z,26.30
2019-02-24T15:25:55.992Z,26.10
2019-02-24T15:28:22.023Z,27.70
2019-02-24T15:30:48.035Z,25.50
2019-02-24T15:33:14.059Z,27.10
2019-02-24T15:35:40.082Z,26.30
2019-02-24T15:38:06.114Z,26.50
2019-02-24T15:40:32.127Z,26.40
2019-02-24T15:42:58.154Z,27.50
2019-02-24T15:45:24.183Z,27.00
2019-02-24T15:47:50.268Z,26.90
2019-02-24T15:50:16.328Z,27.00
2019-02-24T15:52:42.359Z,27.00
2019-02-24T15:55:10.574Z,26.80
2019-02-24T15:57:36.583Z,27.70
2019-02-24T16:00:12.191Z,27.90
2019-02-24T16:02:38.205Z,28.00
2019-02-24T16:05:06.635Z,28.50
2019-02-24T16:07:32.651Z,28.10
2019-02-24T16:09:59.091Z,27.90
2019-02-24T16:12:25.103Z,27.20
2019-02-24T16:14:51.131Z,27.30
2019-02-24T16:17:17.143Z,27.40
2019-02-24T16:19:43.819Z,27.70
2019-02-24T16:22:09.846Z,27.50
2019-02-24T16:24:35.882Z,28.20
2019-02-24T16:27:02.007Z,27.70
2019-02-24T16:29:28.031Z,28.00
2019-02-24T16:31:54.043Z,28.20
2019-02-24T16:34:20.067Z,28.00
2019-02-24T16:36:46.075Z,27.60
2019-02-24T16:39:12.115Z,27.30
2019-02-24T16:41:38.131Z,27.50
2019-02-24T16:44:04.157Z,27.80
2019-02-24T16:46:30.169Z,28.00
2019-02-24T16:48:56.205Z,28.60
2019-02-24T16:51:22.211Z,28.10
2019-02-24T16:53:48.243Z,29.00
2019-02-24T16:56:14.252Z,28.70
2019-02-24T16:58:40.295Z,28.50
2019-02-24T17:01:06.307Z,28.10
2019-02-24T17:03:32.436Z,28.60
2019-02-24T17:05:58.449Z,28.90
2019-02-24T17:08:24.483Z,29.20
2019-02-24T17:10:50.497Z,29.70
2019-02-24T17:13:16.503Z,29.70
2019-02-24T17:15:42.547Z,29.30
2019-02-24T17:18:08.568Z,29.40
2019-02-24T17:20:34.599Z,28.50
2019-02-24T17:23:00.613Z,28.90
2019-02-24T17:25:26.638Z,27.60
2019-02-24T17:27:52.645Z,27.60
2019-02-24T17:30:19.579Z,27.40
2019-02-24T17:32:45.584Z,28.10
2019-02-24T17:35:12.347Z,28.00
2019-02-24T17:37:38.368Z,28.40
2019-02-24T17:40:10.987Z,28.30
2019-02-24T17:42:37.851Z,28.30
2019-02-24T17:45:07.079Z,28.50
2019-02-24T17:47:33.091Z,28.30
2019-02-24T17:49:59.155Z,28.30
2019-02-24T17:52:25.231Z,28.50
2019-02-24T17:54:51.259Z,28.90
2019-02-24T17:57:17.263Z,28.70
2019-02-24T17:59:43.291Z,28.80
2019-02-24T18:02:09.298Z,28.80
2019-02-24T18:04:35.331Z,28.80
2019-02-24T18:07:01.344Z,28.80
2019-02-24T18:09:27.372Z,28.70
2019-02-24T18:11:53.392Z,28.30
2019-02-24T18:14:19.415Z,28.20
2019-02-24T18:16:45.436Z,28.30
2019-02-24T18:19:11.463Z,28.30
2019-02-24T18:21:37.475Z,28.20
2019-02-24T18:24:03.507Z,28.20
2019-02-24T18:26:29.523Z,28.00
2019-02-24T18:28:55.537Z,28.30
2019-02-24T18:31:21.781Z,28.70
2019-02-24T18:33:48.549Z,28.50
2019-02-24T18:36:14.852Z,28.90
2019-02-24T18:38:40.865Z,28.50
2019-02-24T18:41:06.894Z,29.00
2019-02-24T18:43:32.906Z,29.10
2019-02-24T18:45:58.953Z,28.80
2019-02-24T18:48:24.961Z,29.40
2019-02-24T18:50:50.997Z,29.00
2019-02-24T18:53:17.006Z,29.10
2019-02-24T18:55:43.067Z,29.60
2019-02-24T18:58:09.375Z,29.40
2019-02-24T19:00:35.415Z,29.60
2019-02-24T19:03:01.419Z,29.90
2019-02-24T19:05:27.447Z,29.80
2019-02-24T19:07:53.453Z,30.00
2019-02-24T19:10:21.483Z,30.30
2019-02-24T19:12:47.796Z,30.40
2019-02-24T19:15:15.752Z,30.90
2019-02-24T19:17:41.763Z,30.70
2019-02-24T19:20:10.694Z,31.60
2019-02-24T19:22:36.711Z,31.40
2019-02-24T19:25:04.841Z,32.40
2019-02-24T19:27:30.856Z,32.10
2019-02-24T19:29:56.894Z,32.20
2019-02-24T19:32:22.895Z,32.10
2019-02-24T19:34:48.955Z,31.90
2019-02-24T19:37:14.980Z,31.80
2019-02-24T19:39:41.017Z,32.30
2019-02-24T19:42:07.028Z,32.30
2019-02-24T19:44:33.056Z,32.10
2019-02-24T19:46:59.063Z,32.30
2019-02-24T19:49:25.071Z,32.60
2019-02-24T19:51:51.103Z,33.10
2019-02-24T19:54:17.111Z,33.20
2019-02-24T19:56:43.372Z,33.50
2019-02-24T19:59:09.379Z,33.80
2019-02-24T20:01:35.404Z,34.50
2019-02-24T20:04:01.412Z,35.00
2019-02-24T20:06:27.477Z,34.50
2019-02-24T20:08:53.564Z,34.90
2019-02-24T20:11:19.611Z,34.50
2019-02-24T20:13:45.619Z,34.40
2019-02-24T20:16:11.668Z,34.40
2019-02-24T20:18:37.699Z,34.50
2019-02-24T20:21:03.826Z,35.20
2019-02-24T20:23:29.830Z,34.70
2019-02-24T20:25:55.860Z,35.30
2019-02-24T20:28:21.874Z,34.80
2019-02-24T20:30:47.919Z,35.10
2019-02-24T20:33:14.023Z,35.20
2019-02-24T20:35:41.348Z,35.60
2019-02-24T20:38:07.494Z,35.70
2019-02-24T20:40:34.580Z,36.00
2019-02-24T20:43:00.599Z,35.60
2019-02-24T20:45:26.636Z,35.80
2019-02-24T20:47:53.148Z,35.50
2019-02-24T20:50:21.883Z,35.60
2019-02-24T20:52:47.902Z,35.80
2019-02-24T20:55:13.936Z,35.80
2019-02-24T20:57:39.958Z,35.90
2019-02-24T21:00:38.533Z,36.20
2019-02-24T21:03:04.544Z,36.30
2019-02-24T21:05:30.599Z,36.10
2019-02-24T21:07:56.611Z,36.20
2019-02-24T21:10:22.647Z,36.10
2019-02-24T21:12:48.662Z,35.80
2019-02-24T21:15:16.183Z,36.00
2019-02-24T21:17:42.387Z,36.10
2019-02-24T21:20:15.256Z,36.10
2019-02-24T21:22:41.348Z,35.90
2019-02-24T21:25:07.480Z,35.90
2019-02-24T21:27:33.499Z,36.20
2019-02-24T21:29:59.532Z,36.00
2019-02-24T21:32:25.560Z,36.40
2019-02-24T21:34:51.572Z,36.20
2019-02-24T21:37:17.623Z,36.20
2019-02-24T21:39:43.628Z,36.20
2019-02-24T21:42:09.668Z,36.40
2019-02-24T21:44:35.684Z,36.10
2019-02-24T21:47:01.715Z,36.30
2019-02-24T21:49:27.753Z,37.20
2019-02-24T21:51:53.779Z,36.10
2019-02-24T21:54:19.896Z,36.00
2019-02-24T21:56:45.923Z,36.00
2019-02-24T21:59:12.940Z,35.40
2019-02-24T22:01:38.985Z,36.00
2019-02-24T22:04:05.000Z,36.00
2019-02-24T22:06:31.038Z,36.30
2019-02-24T22:08:57.054Z,36.20
2019-02-24T22:11:23.081Z,36.20
2019-02-24T22:13:49.108Z,36.30
2019-02-24T22:16:15.167Z,36.10
2019-02-24T22:18:41.227Z,36.30
2019-02-24T22:21:07.259Z,36.30
2019-02-24T22:23:33.337Z,36.80
2019-02-24T22:25:59.370Z,36.90
2019-02-24T22:28:25.376Z,37.00
2019-02-24T22:30:51.407Z,36.90
2019-02-24T22:33:17.510Z,36.70
2019-02-24T22:35:43.527Z,36.50
2019-02-24T22:38:09.561Z,36.60
2019-02-24T22:40:35.579Z,36.40
2019-02-24T22:43:01.615Z,36.60
2019-02-24T22:45:28.671Z,37.00
2019-02-24T22:47:54.707Z,37.40
2019-02-24T22:50:20.736Z,37.30
2019-02-24T22:52:46.793Z,37.60
2019-02-24T22:55:14.200Z,37.60
2019-02-24T22:57:40.346Z,37.20
2019-02-24T23:00:23.027Z,37.20
2019-02-24T23:02:49.056Z,36.90
2019-02-24T23:05:15.372Z,37.60
2019-02-24T23:07:41.409Z,36.80
2019-02-24T23:10:07.423Z,36.80
2019-02-24T23:12:33.464Z,37.10
2019-02-24T23:14:59.475Z,37.90
2019-02-24T23:17:25.591Z,37.40
2019-02-24T23:19:51.616Z,37.30
2019-02-24T23:22:17.654Z,37.60
2019-02-24T23:24:43.668Z,37.80
2019-02-24T23:27:09.717Z,37.80
2019-02-24T23:29:35.764Z,37.80
2019-02-24T23:32:01.795Z,38.10
2019-02-24T23:34:27.908Z,38.50
2019-02-24T23:36:54.007Z,38.60
2019-02-24T23:39:39.892Z,38.90
2019-02-24T23:42:06.019Z,40.60
2019-02-24T23:44:32.132Z,40.50
2019-02-24T23:46:58.185Z,40.50
2019-02-24T23:49:24.275Z,41.60
2019-02-24T23:51:50.304Z,41.20
2019-02-24T23:54:16.343Z,41.80
2019-02-24T23:56:42.383Z,41.80
2019-02-24T23:59:08.400Z,40.70
